createdAt,value
2023-03-30T00:01:56.843Z,4.10
2023-03-30T00:04:28.114Z,5.97
2023-03-30T00:06:57.407Z,4.80
2023-03-30T00:09:33.386Z,4.70
2023-03-30T00:12:04.623Z,7.57
2023-03-30T00:14:38.382Z,4.15
2023-03-30T00:17:08.594Z,5.40
2023-03-30T00:19:38.411Z,5.55
2023-03-30T00:22:08.407Z,5.43
2023-03-30T00:24:37.606Z,7.05
2023-03-30T00:27:08.241Z,5.55
2023-03-30T00:29:37.463Z,5.00
2023-03-30T00:32:06.628Z,3.58
2023-03-30T00:34:35.622Z,4.97
2023-03-30T00:37:04.937Z,6.18
2023-03-30T00:39:34.618Z,6.47
2023-03-30T00:42:03.643Z,4.72
2023-03-30T00:45:20.159Z,8.40
2023-03-30T00:47:55.836Z,4.57
2023-03-30T00:50:30.810Z,5.75
2023-03-30T00:53:02.220Z,4.53
2023-03-30T00:55:33.248Z,6.28
2023-03-30T00:58:02.918Z,5.47
2023-03-30T01:00:34.002Z,6.50
2023-03-30T01:03:09.163Z,6.22
2023-03-30T01:05:40.379Z,6.15
2023-03-30T01:08:14.761Z,7.03
2023-03-30T01:10:44.161Z,3.85
2023-03-30T01:13:14.901Z,5.05
2023-03-30T01:15:58.044Z,5.00
2023-03-30T01:18:39.482Z,5.28
2023-03-30T01:21:43.470Z,4.32
2023-03-30T01:25:05.970Z,7.45
2023-03-30T01:27:54.297Z,7.50
2023-03-30T01:30:44.454Z,7.43
2023-03-30T01:33:57.572Z,6.72
2023-03-30T01:36:47.648Z,5.03
2023-03-30T01:39:37.707Z,4.13
2023-03-30T01:42:17.983Z,4.50
2023-03-30T01:44:53.924Z,7.03
2023-03-30T01:47:29.687Z,5.82
2023-03-30T01:50:03.794Z,6.60
2023-03-30T01:52:39.525Z,6.35
2023-03-30T01:55:15.675Z,6.00
2023-03-30T01:57:51.592Z,7.80
2023-03-30T02:00:23.677Z,6.90
2023-03-30T02:02:59.266Z,5.35
2023-03-30T02:05:29.906Z,4.97
2023-03-30T02:08:04.340Z,6.47
2023-03-30T02:10:37.119Z,6.88
2023-03-30T02:13:08.411Z,8.82
2023-03-30T02:15:41.943Z,6.68
2023-03-30T02:18:11.972Z,7.10
2023-03-30T02:20:41.008Z,5.85
2023-03-30T02:23:10.388Z,6.28
2023-03-30T02:25:41.436Z,6.60
2023-03-30T02:28:10.678Z,7.57
2023-03-30T02:30:43.788Z,7.03
2023-03-30T02:33:26.474Z,7.28
2023-03-30T02:36:07.639Z,4.55
2023-03-30T02:39:01.774Z,6.40
2023-03-30T02:41:52.746Z,7.57
2023-03-30T02:44:32.263Z,6.15
2023-03-30T02:47:08.303Z,6.95
2023-03-30T02:49:54.468Z,8.40
2023-03-30T02:52:40.417Z,7.22
2023-03-30T02:55:19.644Z,7.63
2023-03-30T02:58:03.962Z,6.05
2023-03-30T03:00:42.873Z,8.88
2023-03-30T03:03:18.725Z,7.57
2023-03-30T03:05:49.815Z,9.75
2023-03-30T03:08:22.632Z,7.43
2023-03-30T03:10:53.041Z,8.40
2023-03-30T03:13:25.263Z,7.47
2023-03-30T03:15:58.056Z,6.05
2023-03-30T03:18:27.378Z,7.18
2023-03-30T03:20:56.896Z,7.30
2023-03-30T03:23:26.564Z,5.20
2023-03-30T03:25:56.848Z,4.82
2023-03-30T03:28:27.938Z,7.50
2023-03-30T03:30:59.150Z,7.00
2023-03-30T03:33:29.077Z,5.68
2023-03-30T03:36:00.712Z,5.78
2023-03-30T03:38:30.498Z,8.57
2023-03-30T03:41:01.215Z,8.10
2023-03-30T03:43:32.538Z,6.85
2023-03-30T03:46:02.211Z,7.50
2023-03-30T03:48:31.455Z,6.13
2023-03-30T03:51:01.182Z,9.07
2023-03-30T03:53:32.000Z,8.20
2023-03-30T03:56:01.200Z,5.85
2023-03-30T03:58:32.730Z,10.55
2023-03-30T04:01:03.531Z,8.25
2023-03-30T04:03:33.413Z,5.80
2023-03-30T04:06:03.622Z,8.35
2023-03-30T04:08:33.002Z,5.85
2023-03-30T04:11:09.038Z,7.75
2023-03-30T04:13:40.504Z,10.82
2023-03-30T04:16:10.814Z,8.68
2023-03-30T04:18:43.004Z,11.75
2023-03-30T04:21:13.791Z,10.77
2023-03-30T04:23:46.629Z,9.30
2023-03-30T04:26:16.912Z,6.32
2023-03-30T04:28:47.992Z,8.35
2023-03-30T04:31:17.152Z,8.55
2023-03-30T04:33:52.287Z,7.15
2023-03-30T04:36:22.276Z,11.05
2023-03-30T04:39:01.362Z,7.10
2023-03-30T04:41:34.781Z,6.38
2023-03-30T04:44:07.541Z,10.85
2023-03-30T04:46:37.406Z,10.68
2023-03-30T04:49:07.256Z,7.50
2023-03-30T04:51:38.201Z,7.63
2023-03-30T04:54:07.694Z,7.70
2023-03-30T04:56:37.143Z,9.65
2023-03-30T04:59:08.306Z,8.73
2023-03-30T05:01:37.842Z,11.10
2023-03-30T05:04:07.180Z,8.68
2023-03-30T05:06:36.476Z,9.13
2023-03-30T05:09:05.968Z,6.68
2023-03-30T05:11:35.095Z,9.88
2023-03-30T05:14:04.680Z,8.68
2023-03-30T05:16:35.687Z,7.13
2023-03-30T05:19:05.312Z,9.13
2023-03-30T05:21:34.670Z,11.02
2023-03-30T05:24:04.073Z,8.32
2023-03-30T05:26:33.322Z,3.92
2023-03-30T05:29:02.400Z,7.47
2023-03-30T05:31:31.431Z,9.85
2023-03-30T05:34:02.074Z,8.52
2023-03-30T05:36:31.111Z,8.80
2023-03-30T05:39:00.134Z,14.02
2023-03-30T05:41:29.712Z,7.72
2023-03-30T05:43:58.785Z,7.45
2023-03-30T05:46:28.758Z,8.77
2023-03-30T05:48:57.910Z,9.75
2023-03-30T05:51:28.550Z,7.97
2023-03-30T05:53:57.500Z,10.40
2023-03-30T05:56:26.621Z,7.30
2023-03-30T05:58:55.556Z,8.70
2023-03-30T06:01:27.004Z,9.32
2023-03-30T06:03:56.200Z,6.75
2023-03-30T06:06:25.257Z,7.50
2023-03-30T06:08:56.092Z,7.55
2023-03-30T06:11:25.087Z,8.02
2023-03-30T06:13:54.306Z,7.53
2023-03-30T06:16:23.431Z,7.93
2023-03-30T06:18:53.014Z,6.28
2023-03-30T06:21:21.992Z,9.77
2023-03-30T06:23:51.046Z,6.22
2023-03-30T06:26:21.888Z,8.27
2023-03-30T06:28:50.943Z,6.55
2023-03-30T06:31:20.052Z,5.95
2023-03-30T06:33:51.000Z,8.15
2023-03-30T06:36:20.129Z,6.75
2023-03-30T06:38:49.652Z,9.98
2023-03-30T06:41:18.698Z,6.50
2023-03-30T06:43:49.474Z,8.43
2023-03-30T06:46:19.207Z,7.07
2023-03-30T06:48:48.494Z,8.65
2023-03-30T06:51:17.604Z,4.85
2023-03-30T06:53:46.914Z,5.20
2023-03-30T06:56:16.448Z,4.45
2023-03-30T06:58:46.764Z,5.93
2023-03-30T07:01:17.647Z,5.00
2023-03-30T07:03:46.681Z,4.88
2023-03-30T07:06:18.074Z,4.60
2023-03-30T07:08:48.497Z,2.88
2023-03-30T07:11:17.469Z,7.72
2023-03-30T07:13:46.855Z,4.18
2023-03-30T07:16:17.821Z,3.97
2023-03-30T07:18:46.874Z,5.90
2023-03-30T07:21:15.851Z,3.67
2023-03-30T07:23:45.585Z,5.20
2023-03-30T07:26:14.630Z,3.80
2023-03-30T07:28:43.948Z,3.05
2023-03-30T07:31:14.703Z,4.85
2023-03-30T07:33:45.365Z,4.22
2023-03-30T07:36:14.578Z,3.75
2023-03-30T07:38:43.649Z,4.68
2023-03-30T07:41:14.449Z,4.35
2023-03-30T07:43:43.549Z,4.15
2023-03-30T07:46:13.299Z,6.53
2023-03-30T07:48:42.516Z,2.30
2023-03-30T07:51:14.482Z,3.03
2023-03-30T07:53:43.966Z,3.05
2023-03-30T07:56:12.965Z,2.63
2023-03-30T07:58:42.036Z,3.42
2023-03-30T08:01:11.900Z,2.42
2023-03-30T08:03:41.058Z,1.35
2023-03-30T08:06:12.871Z,2.45
2023-03-30T08:08:41.972Z,1.40
2023-03-30T08:11:12.001Z,1.60
2023-03-30T08:13:41.212Z,1.67
2023-03-30T08:16:10.322Z,2.40
2023-03-30T08:18:42.244Z,1.52
2023-03-30T08:21:13.069Z,1.13
2023-03-30T08:23:41.998Z,1.48
2023-03-30T08:26:11.193Z,2.00
2023-03-30T08:28:40.236Z,1.10
2023-03-30T08:31:11.651Z,1.58
2023-03-30T08:33:40.684Z,1.45
2023-03-30T08:36:09.846Z,1.20
2023-03-30T08:38:40.845Z,1.83
2023-03-30T08:41:45.381Z,1.77
2023-03-30T08:44:25.610Z,1.92
2023-03-30T08:46:55.918Z,1.52
2023-03-30T08:49:27.433Z,1.42
2023-03-30T08:51:57.178Z,1.42
2023-03-30T08:54:29.863Z,1.13
2023-03-30T08:57:06.850Z,2.10
2023-03-30T08:59:44.188Z,1.55
2023-03-30T09:02:20.246Z,2.42
2023-03-30T09:04:59.170Z,2.60
2023-03-30T09:07:31.368Z,2.22
2023-03-30T09:10:02.697Z,1.38
2023-03-30T09:12:41.304Z,2.97
2023-03-30T09:15:17.973Z,1.65
2023-03-30T09:17:51.706Z,1.85
2023-03-30T09:20:25.187Z,2.05
2023-03-30T09:22:54.884Z,2.95
2023-03-30T09:25:34.873Z,2.83
2023-03-30T09:28:13.602Z,3.65
2023-03-30T09:30:44.706Z,4.22
2023-03-30T09:33:28.186Z,2.92
2023-03-30T09:36:11.762Z,3.22
2023-03-30T09:38:42.671Z,3.65
2023-03-30T09:41:42.540Z,2.17
2023-03-30T09:44:19.986Z,3.53
2023-03-30T09:46:50.828Z,3.97
2023-03-30T09:49:19.820Z,3.80
2023-03-30T09:52:02.296Z,2.13
2023-03-30T09:54:38.254Z,2.33
2023-03-30T09:57:25.642Z,3.50
2023-03-30T09:59:56.692Z,3.00
2023-03-30T10:02:28.586Z,2.85
2023-03-30T10:05:03.525Z,3.42
2023-03-30T10:07:35.173Z,3.00
2023-03-30T10:10:16.483Z,2.22
2023-03-30T10:12:47.470Z,2.58
2023-03-30T10:15:22.154Z,1.75
2023-03-30T10:17:55.854Z,3.10
2023-03-30T10:20:28.612Z,1.88
2023-03-30T10:23:01.256Z,2.33
2023-03-30T10:25:32.389Z,2.78
2023-03-30T10:28:05.926Z,2.58
2023-03-30T10:30:35.656Z,2.28
2023-03-30T10:33:05.083Z,1.60
2023-03-30T10:35:38.569Z,1.40
2023-03-30T10:38:14.594Z,1.30
2023-03-30T10:40:45.664Z,0.90
2023-03-30T10:43:21.225Z,1.65
2023-03-30T10:45:52.066Z,0.90
2023-03-30T10:48:38.691Z,1.30
2023-03-30T10:51:18.861Z,2.20
2023-03-30T10:53:59.816Z,1.33
2023-03-30T10:56:35.910Z,1.15
2023-03-30T10:59:24.424Z,1.10
2023-03-30T11:02:09.568Z,1.10
2023-03-30T11:04:44.402Z,2.72
2023-03-30T11:07:22.103Z,1.08
2023-03-30T11:09:55.857Z,1.02
2023-03-30T11:12:27.932Z,1.40
2023-03-30T11:15:03.027Z,1.30
2023-03-30T11:17:36.467Z,1.35
2023-03-30T11:20:19.812Z,1.42
2023-03-30T11:22:56.642Z,1.30
2023-03-30T11:25:31.017Z,1.35
2023-03-30T11:28:04.934Z,1.75
2023-03-30T11:30:38.264Z,1.30
2023-03-30T11:33:18.627Z,1.60
2023-03-30T11:35:49.343Z,2.70
2023-03-30T11:38:22.912Z,1.50
2023-03-30T11:40:57.456Z,1.20
2023-03-30T11:43:29.629Z,2.88
2023-03-30T11:46:05.286Z,1.02
2023-03-30T11:48:58.360Z,1.48
2023-03-30T11:51:48.091Z,1.60
2023-03-30T11:54:59.824Z,1.30
2023-03-30T11:57:38.130Z,1.58
2023-03-30T12:00:25.868Z,1.40
2023-03-30T12:03:09.173Z,1.40
2023-03-30T12:05:41.567Z,1.15
2023-03-30T12:08:26.694Z,1.35
2023-03-30T12:11:03.434Z,2.13
2023-03-30T12:13:41.311Z,1.20
2023-03-30T12:16:24.607Z,1.20
2023-03-30T12:19:10.561Z,1.00
2023-03-30T12:21:48.926Z,1.30
2023-03-30T12:24:23.579Z,1.30
2023-03-30T12:27:04.287Z,1.45
2023-03-30T12:30:02.646Z,1.35
2023-03-30T12:32:36.700Z,1.52
2023-03-30T12:35:52.162Z,1.40
2023-03-30T12:38:24.464Z,1.40
2023-03-30T12:41:05.330Z,1.20
2023-03-30T12:43:43.763Z,1.40
2023-03-30T12:46:20.912Z,1.50
2023-03-30T12:49:00.375Z,2.22
2023-03-30T12:51:43.303Z,1.95
2023-03-30T12:54:40.938Z,1.70
2023-03-30T12:57:27.077Z,2.15
2023-03-30T13:00:27.998Z,1.35
2023-03-30T13:03:07.774Z,1.75
2023-03-30T13:05:41.121Z,1.48
2023-03-30T13:08:22.121Z,1.40
2023-03-30T13:10:51.390Z,2.13
2023-03-30T13:13:24.967Z,1.30
2023-03-30T13:15:55.757Z,1.75
2023-03-30T13:18:36.661Z,1.52
2023-03-30T13:21:21.394Z,2.13
2023-03-30T13:24:23.457Z,1.60
2023-03-30T13:26:52.790Z,2.17
2023-03-30T13:29:24.995Z,1.65
2023-03-30T13:32:04.792Z,1.40
2023-03-30T13:35:03.554Z,1.63
2023-03-30T13:37:54.652Z,1.50
2023-03-30T13:40:41.588Z,1.67
2023-03-30T13:43:22.233Z,1.45
2023-03-30T13:46:09.547Z,1.48
2023-03-30T13:49:03.938Z,1.27
2023-03-30T13:51:33.897Z,1.55
2023-03-30T13:54:06.458Z,1.45
2023-03-30T13:56:40.254Z,2.13
2023-03-30T13:59:13.270Z,1.70
2023-03-30T14:01:45.484Z,1.40
2023-03-30T14:04:16.156Z,1.52
2023-03-30T14:06:47.930Z,1.20
2023-03-30T14:09:22.598Z,1.70
2023-03-30T14:11:54.990Z,1.50
2023-03-30T14:14:32.468Z,1.42
2023-03-30T14:17:02.778Z,1.25
2023-03-30T14:19:36.193Z,1.40
2023-03-30T14:22:11.949Z,2.42
2023-03-30T14:24:41.041Z,2.60
2023-03-30T14:27:16.258Z,1.67
2023-03-30T14:29:49.693Z,2.13
2023-03-30T14:32:25.799Z,1.50
2023-03-30T14:34:55.840Z,1.77
2023-03-30T14:37:27.168Z,1.75
2023-03-30T14:39:58.333Z,1.67
2023-03-30T14:42:34.839Z,1.50
2023-03-30T14:47:32.780Z,2.35
2023-03-30T14:50:06.664Z,1.70
2023-03-30T14:52:41.512Z,1.58
2023-03-30T14:55:17.634Z,1.70
2023-03-30T14:57:50.173Z,1.98
2023-03-30T15:00:21.779Z,1.60
2023-03-30T15:02:53.311Z,1.50
2023-03-30T15:05:25.046Z,1.70
2023-03-30T15:07:54.900Z,1.92
2023-03-30T15:10:27.558Z,1.80
2023-03-30T15:12:59.494Z,2.17
2023-03-30T15:15:31.743Z,3.47
2023-03-30T15:18:03.597Z,3.17
2023-03-30T15:20:34.921Z,3.78
2023-03-30T15:23:05.212Z,3.47
2023-03-30T15:25:36.324Z,1.73
2023-03-30T15:28:09.518Z,2.55
2023-03-30T15:30:40.796Z,1.77
2023-03-30T15:33:21.939Z,2.17
2023-03-30T15:35:53.750Z,1.77
2023-03-30T15:38:32.015Z,1.88
2023-03-30T15:41:01.510Z,2.20
2023-03-30T15:43:34.217Z,2.53
2023-03-30T15:46:06.947Z,2.03
2023-03-30T15:48:42.755Z,1.67
2023-03-30T15:51:15.792Z,1.65
2023-03-30T15:53:51.322Z,1.58
2023-03-30T15:56:24.602Z,2.05
2023-03-30T15:58:55.686Z,2.95
2023-03-30T16:01:24.750Z,2.20
2023-03-30T16:03:57.553Z,3.25
2023-03-30T16:06:26.604Z,1.85
2023-03-30T16:08:55.660Z,1.48
2023-03-30T16:11:24.763Z,1.27
2023-03-30T16:13:55.601Z,1.20
2023-03-30T16:16:24.670Z,1.80
2023-03-30T16:18:53.679Z,2.35
2023-03-30T16:21:25.364Z,1.30
2023-03-30T16:23:54.341Z,1.40
2023-03-30T16:26:23.279Z,2.55
2023-03-30T16:28:53.078Z,1.65
2023-03-30T16:31:24.414Z,1.65
2023-03-30T16:33:53.461Z,1.73
2023-03-30T16:36:25.424Z,2.60
2023-03-30T16:38:54.426Z,2.80
2023-03-30T16:41:24.644Z,2.67
2023-03-30T16:43:53.588Z,2.30
2023-03-30T16:46:25.224Z,2.13
2023-03-30T16:48:54.166Z,1.55
2023-03-30T16:51:24.981Z,2.75
2023-03-30T16:53:53.922Z,2.05
2023-03-30T16:56:23.139Z,2.22
2023-03-30T16:58:52.324Z,1.77
2023-03-30T17:01:21.473Z,1.40
2023-03-30T17:03:52.148Z,2.10
2023-03-30T17:06:23.292Z,2.95
2023-03-30T17:08:52.729Z,2.13
2023-03-30T17:11:21.748Z,3.42
2023-03-30T17:13:51.185Z,2.20
2023-03-30T17:16:20.426Z,1.67
2023-03-30T17:18:51.108Z,1.45
2023-03-30T17:21:20.109Z,1.70
2023-03-30T17:23:49.887Z,1.88
2023-03-30T17:26:19.690Z,2.00
2023-03-30T17:28:48.895Z,2.25
2023-03-30T17:31:19.368Z,1.63
2023-03-30T17:33:49.057Z,1.10
2023-03-30T17:36:21.737Z,1.73
2023-03-30T17:38:51.841Z,1.30
2023-03-30T17:41:21.526Z,1.42
2023-03-30T17:43:50.535Z,1.88
2023-03-30T17:46:20.486Z,2.78
2023-03-30T17:48:51.873Z,1.60
2023-03-30T17:51:22.496Z,2.42
2023-03-30T17:53:51.565Z,2.53
2023-03-30T17:56:20.548Z,3.60
2023-03-30T17:58:50.418Z,1.88
2023-03-30T18:01:19.388Z,1.42
2023-03-30T18:03:48.553Z,1.55
2023-03-30T18:06:17.890Z,1.10
2023-03-30T18:08:49.449Z,1.48
2023-03-30T18:11:18.463Z,1.30
2023-03-30T18:13:47.429Z,1.42
2023-03-30T18:16:18.691Z,1.58
2023-03-30T18:18:47.780Z,1.50
2023-03-30T18:21:16.791Z,1.23
2023-03-30T18:23:45.839Z,1.38
2023-03-30T18:26:16.646Z,2.67
2023-03-30T18:28:47.318Z,2.63
2023-03-30T18:31:16.419Z,2.22
2023-03-30T18:33:45.438Z,1.85
2023-03-30T18:36:15.562Z,1.63
2023-03-30T18:38:44.977Z,1.90
2023-03-30T18:41:16.169Z,1.65
2023-03-30T18:43:45.109Z,1.20
2023-03-30T18:46:14.723Z,2.17
2023-03-30T18:48:43.986Z,1.30
2023-03-30T18:51:13.679Z,1.02
2023-03-30T18:53:42.672Z,1.10
2023-03-30T18:56:14.559Z,2.33
2023-03-30T18:58:45.231Z,1.70
2023-03-30T19:01:16.514Z,1.92
2023-03-30T19:03:46.667Z,1.48
2023-03-30T19:06:20.742Z,1.98
2023-03-30T19:08:49.841Z,1.67
2023-03-30T19:11:23.052Z,1.35
2023-03-30T19:13:53.884Z,1.30
2023-03-30T19:16:23.499Z,2.03
2023-03-30T19:18:54.453Z,1.60
2023-03-30T19:21:23.530Z,1.98
2023-03-30T19:23:52.549Z,1.75
2023-03-30T19:26:21.897Z,2.33
2023-03-30T19:28:52.544Z,2.08
2023-03-30T19:31:21.579Z,3.38
2023-03-30T19:33:50.662Z,2.28
2023-03-30T19:36:19.686Z,1.60
2023-03-30T19:38:50.255Z,3.28
2023-03-30T19:41:19.297Z,2.47
2023-03-30T19:43:50.973Z,1.75
2023-03-30T19:46:21.831Z,5.07
2023-03-30T19:48:50.928Z,2.10
2023-03-30T19:51:20.534Z,1.85
2023-03-30T19:53:49.663Z,3.45
2023-03-30T19:56:19.159Z,2.60
2023-03-30T19:58:48.327Z,4.32
2023-03-30T20:01:17.537Z,2.75
2023-03-30T20:03:48.213Z,2.42
2023-03-30T20:06:17.349Z,3.60
2023-03-30T20:08:46.374Z,2.08
2023-03-30T20:11:15.349Z,2.80
2023-03-30T20:13:46.745Z,3.05
2023-03-30T20:16:22.004Z,2.88
2023-03-30T20:18:54.555Z,3.90
2023-03-30T20:21:25.694Z,2.85
2023-03-30T20:23:56.755Z,3.85
2023-03-30T20:26:25.886Z,1.92
2023-03-30T20:28:54.950Z,2.60
2023-03-30T20:31:24.573Z,2.30
2023-03-30T20:33:55.649Z,4.82
2023-03-30T20:36:28.081Z,7.15
2023-03-30T20:39:00.268Z,2.10
2023-03-30T20:41:39.077Z,7.07
2023-03-30T20:44:15.210Z,2.20
2023-03-30T20:49:16.629Z,2.97
2023-03-30T20:51:46.966Z,3.13
2023-03-30T20:54:16.595Z,3.28
2023-03-30T20:56:45.670Z,2.92
2023-03-30T20:59:14.818Z,2.72
2023-03-30T21:01:44.316Z,3.35
2023-03-30T21:04:15.301Z,2.38
2023-03-30T21:06:44.425Z,3.50
2023-03-30T21:09:13.467Z,4.03
2023-03-30T21:11:42.454Z,3.92
2023-03-30T21:14:14.615Z,2.40
2023-03-30T21:16:43.937Z,3.58
2023-03-30T21:19:14.678Z,3.20
2023-03-30T21:21:43.748Z,2.75
2023-03-30T21:24:13.455Z,2.55
2023-03-30T21:26:42.694Z,3.08
2023-03-30T21:29:12.007Z,3.13
2023-03-30T21:31:41.040Z,2.08
2023-03-30T21:34:11.551Z,4.00
2023-03-30T21:36:42.386Z,2.30
2023-03-30T21:39:11.657Z,3.83
2023-03-30T21:41:40.714Z,3.45
2023-03-30T21:44:09.971Z,2.30
2023-03-30T21:46:38.968Z,2.63
2023-03-30T21:49:08.037Z,2.22
2023-03-30T21:51:37.003Z,2.05
2023-03-30T21:54:08.517Z,4.22
2023-03-30T21:56:37.515Z,2.30
2023-03-30T21:59:06.496Z,2.22
2023-03-30T22:01:36.371Z,2.45
2023-03-30T22:04:06.325Z,4.45
2023-03-30T22:06:35.537Z,2.78
2023-03-30T22:09:04.659Z,4.78
2023-03-30T22:11:35.314Z,3.78
2023-03-30T22:14:04.578Z,3.33
2023-03-30T22:16:33.987Z,3.83
2023-03-30T22:19:03.166Z,2.63
2023-03-30T22:21:35.973Z,3.42
2023-03-30T22:24:06.605Z,2.22
2023-03-30T22:26:37.562Z,3.08
2023-03-30T22:29:06.830Z,4.40
2023-03-30T22:31:36.032Z,2.67
2023-03-30T22:34:05.430Z,4.88
2023-03-30T22:36:34.705Z,2.85
2023-03-30T22:39:05.090Z,3.38
2023-03-30T22:41:34.096Z,4.38
2023-03-30T22:44:04.836Z,3.25
2023-03-30T22:46:33.931Z,6.15
2023-03-30T22:49:04.572Z,3.63
2023-03-30T22:51:34.826Z,5.75
2023-03-30T22:54:03.982Z,4.28
2023-03-30T22:56:33.157Z,3.50
2023-03-30T22:59:04.176Z,3.50
2023-03-30T23:01:33.748Z,2.47
2023-03-30T23:04:04.161Z,3.47
2023-03-30T23:06:35.132Z,2.15
2023-03-30T23:09:05.132Z,3.75
2023-03-30T23:11:35.073Z,2.70
2023-03-30T23:14:08.592Z,3.30
2023-03-30T23:16:38.385Z,4.85
2023-03-30T23:19:08.357Z,3.45
2023-03-30T23:21:37.457Z,3.33
2023-03-30T23:24:08.972Z,4.57
2023-03-30T23:26:38.028Z,3.85
2023-03-30T23:29:08.718Z,6.45
2023-03-30T23:31:37.958Z,2.85
2023-03-30T23:34:08.694Z,4.72
2023-03-30T23:36:37.738Z,4.10
2023-03-30T23:39:06.718Z,4.20
2023-03-30T23:41:35.924Z,4.13
2023-03-30T23:44:05.029Z,4.70
2023-03-30T23:46:35.695Z,3.85
2023-03-30T23:49:04.722Z,3.72
2023-03-30T23:51:33.950Z,5.78
2023-03-30T23:54:07.897Z,3.38
2023-03-30T23:56:38.096Z,2.88
2023-03-30T23:59:07.334Z,7.20
